sensor_id;sensor_type;location;lat;lon;timestamp;P1;durP1;ratioP1;P2;durP2;ratioP2
75379;SDS011;65641;44.714;37.756;2022-12-29T00:00:20;8.45;;;5.25;;
75379;SDS011;65641;44.714;37.756;2022-12-29T00:01:23;7.93;;;4.88;;
75379;SDS011;65641;44.714;37.756;2022-12-29T00:02:26;7.63;;;5.90;;
75379;SDS011;65641;44.714;37.756;2022-12-29T00:03:31;7.57;;;5.13;;
75379;SDS011;65641;44.714;37.756;2022-12-29T00:04:35;8.32;;;5.47;;
75379;SDS011;65641;44.714;37.756;2022-12-29T00:05:38;9.50;;;5.35;;
75379;SDS011;65641;44.714;37.756;2022-12-29T00:06:42;8.23;;;5.45;;
75379;SDS011;65641;44.714;37.756;2022-12-29T00:07:45;7.53;;;5.00;;
75379;SDS011;65641;44.714;37.756;2022-12-29T00:08:48;10.90;;;6.10;;
75379;SDS011;65641;44.714;37.756;2022-12-29T00:09:52;9.55;;;6.95;;
75379;SDS011;65641;44.714;37.756;2022-12-29T00:10:55;7.00;;;4.68;;
75379;SDS011;65641;44.714;37.756;2022-12-29T00:11:59;9.93;;;5.13;;
75379;SDS011;65641;44.714;37.756;2022-12-29T00:13:02;10.55;;;5.57;;
75379;SDS011;65641;44.714;37.756;2022-12-29T00:14:35;9.85;;;5.35;;
75379;SDS011;65641;44.714;37.756;2022-12-29T00:15:56;7.85;;;5.20;;
75379;SDS011;65641;44.714;37.756;2022-12-29T00:17:06;7.20;;;5.13;;
75379;SDS011;65641;44.714;37.756;2022-12-29T00:18:09;8.15;;;4.95;;
75379;SDS011;65641;44.714;37.756;2022-12-29T00:19:12;7.32;;;5.32;;
75379;SDS011;65641;44.714;37.756;2022-12-29T00:20:36;9.57;;;5.20;;
75379;SDS011;65641;44.714;37.756;2022-12-29T00:21:58;7.40;;;4.93;;
75379;SDS011;65641;44.714;37.756;2022-12-29T00:23:20;6.63;;;4.00;;
75379;SDS011;65641;44.714;37.756;2022-12-29T00:24:43;9.13;;;5.40;;
75379;SDS011;65641;44.714;37.756;2022-12-29T00:26:12;8.00;;;5.10;;
75379;SDS011;65641;44.714;37.756;2022-12-29T00:27:36;8.07;;;4.88;;
75379;SDS011;65641;44.714;37.756;2022-12-29T00:29:07;9.35;;;4.78;;
75379;SDS011;65641;44.714;37.756;2022-12-29T00:30:29;7.72;;;4.75;;
75379;SDS011;65641;44.714;37.756;2022-12-29T00:31:50;8.43;;;5.38;;
75379;SDS011;65641;44.714;37.756;2022-12-29T00:33:16;6.93;;;5.30;;
75379;SDS011;65641;44.714;37.756;2022-12-29T00:34:38;7.60;;;4.40;;
75379;SDS011;65641;44.714;37.756;2022-12-29T00:37:23;7.93;;;4.55;;
75379;SDS011;65641;44.714;37.756;2022-12-29T00:38:49;7.80;;;5.38;;
75379;SDS011;65641;44.714;37.756;2022-12-29T00:40:14;7.05;;;4.15;;
75379;SDS011;65641;44.714;37.756;2022-12-29T00:41:36;9.30;;;5.10;;
75379;SDS011;65641;44.714;37.756;2022-12-29T00:42:59;6.85;;;4.55;;
75379;SDS011;65641;44.714;37.756;2022-12-29T00:44:21;7.47;;;4.88;;
75379;SDS011;65641;44.714;37.756;2022-12-29T00:45:24;7.22;;;4.20;;
75379;SDS011;65641;44.714;37.756;2022-12-29T00:46:27;9.32;;;5.20;;
75379;SDS011;65641;44.714;37.756;2022-12-29T00:47:30;7.72;;;5.60;;
75379;SDS011;65641;44.714;37.756;2022-12-29T00:48:33;9.10;;;5.13;;
75379;SDS011;65641;44.714;37.756;2022-12-29T00:49:54;6.72;;;4.55;;
75379;SDS011;65641;44.714;37.756;2022-12-29T00:50:57;8.98;;;5.10;;
75379;SDS011;65641;44.714;37.756;2022-12-29T00:52:04;7.20;;;4.70;;
75379;SDS011;65641;44.714;37.756;2022-12-29T00:53:09;8.30;;;4.50;;
75379;SDS011;65641;44.714;37.756;2022-12-29T00:54:12;7.57;;;5.05;;
75379;SDS011;65641;44.714;37.756;2022-12-29T00:55:19;7.47;;;5.25;;
75379;SDS011;65641;44.714;37.756;2022-12-29T00:56:22;7.13;;;5.00;;
75379;SDS011;65641;44.714;37.756;2022-12-29T00:57:25;7.10;;;4.50;;
75379;SDS011;65641;44.714;37.756;2022-12-29T00:58:28;6.95;;;4.97;;
75379;SDS011;65641;44.714;37.756;2022-12-29T00:59:38;8.25;;;4.70;;
75379;SDS011;65641;44.714;37.756;2022-12-29T01:00:43;7.32;;;4.75;;
75379;SDS011;65641;44.714;37.756;2022-12-29T01:01:47;9.23;;;5.65;;
75379;SDS011;65641;44.714;37.756;2022-12-29T01:02:51;6.90;;;4.70;;
75379;SDS011;65641;44.714;37.756;2022-12-29T01:03:54;7.57;;;4.40;;
75379;SDS011;65641;44.714;37.756;2022-12-29T01:05:04;8.02;;;5.68;;
75379;SDS011;65641;44.714;37.756;2022-12-29T01:06:12;7.47;;;5.07;;
75379;SDS011;65641;44.714;37.756;2022-12-29T01:07:15;9.45;;;5.57;;
75379;SDS011;65641;44.714;37.756;2022-12-29T01:08:19;6.53;;;4.22;;
75379;SDS011;65641;44.714;37.756;2022-12-29T01:09:22;7.72;;;5.25;;
75379;SDS011;65641;44.714;37.756;2022-12-29T01:10:44;7.30;;;4.90;;
75379;SDS011;65641;44.714;37.756;2022-12-29T01:11:47;8.00;;;4.63;;
75379;SDS011;65641;44.714;37.756;2022-12-29T01:12:51;7.47;;;4.60;;
75379;SDS011;65641;44.714;37.756;2022-12-29T01:13:54;8.90;;;5.18;;
75379;SDS011;65641;44.714;37.756;2022-12-29T01:14:57;8.50;;;5.20;;
75379;SDS011;65641;44.714;37.756;2022-12-29T01:16:00;8.60;;;4.93;;
75379;SDS011;65641;44.714;37.756;2022-12-29T01:17:06;8.70;;;5.47;;
75379;SDS011;65641;44.714;37.756;2022-12-29T01:18:13;9.07;;;4.75;;
75379;SDS011;65641;44.714;37.756;2022-12-29T01:19:16;9.38;;;4.65;;
75379;SDS011;65641;44.714;37.756;2022-12-29T01:20:20;8.30;;;4.88;;
75379;SDS011;65641;44.714;37.756;2022-12-29T01:21:24;7.38;;;4.78;;
75379;SDS011;65641;44.714;37.756;2022-12-29T01:22:27;7.43;;;5.35;;
75379;SDS011;65641;44.714;37.756;2022-12-29T01:23:30;7.93;;;5.18;;
75379;SDS011;65641;44.714;37.756;2022-12-29T01:24:37;7.65;;;4.68;;
75379;SDS011;65641;44.714;37.756;2022-12-29T01:25:40;8.15;;;5.00;;
75379;SDS011;65641;44.714;37.756;2022-12-29T01:26:44;7.82;;;5.25;;
75379;SDS011;65641;44.714;37.756;2022-12-29T01:27:48;8.02;;;5.38;;
75379;SDS011;65641;44.714;37.756;2022-12-29T01:28:51;8.88;;;5.05;;
75379;SDS011;65641;44.714;37.756;2022-12-29T01:29:54;8.40;;;5.10;;
75379;SDS011;65641;44.714;37.756;2022-12-29T01:30:59;6.88;;;5.25;;
75379;SDS011;65641;44.714;37.756;2022-12-29T01:32:03;6.78;;;5.57;;
75379;SDS011;65641;44.714;37.756;2022-12-29T01:33:07;7.57;;;4.72;;
75379;SDS011;65641;44.714;37.756;2022-12-29T01:34:14;8.00;;;5.70;;
75379;SDS011;65641;44.714;37.756;2022-12-29T01:35:17;7.68;;;4.95;;
75379;SDS011;65641;44.714;37.756;2022-12-29T01:36:20;8.45;;;5.72;;
75379;SDS011;65641;44.714;37.756;2022-12-29T01:37:23;8.25;;;6.00;;
75379;SDS011;65641;44.714;37.756;2022-12-29T01:38:26;6.78;;;5.00;;
75379;SDS011;65641;44.714;37.756;2022-12-29T01:39:29;8.05;;;4.97;;
75379;SDS011;65641;44.714;37.756;2022-12-29T01:40:32;8.57;;;5.25;;
75379;SDS011;65641;44.714;37.756;2022-12-29T01:41:38;6.47;;;5.70;;
75379;SDS011;65641;44.714;37.756;2022-12-29T01:42:44;8.05;;;5.18;;
75379;SDS011;65641;44.714;37.756;2022-12-29T01:43:48;8.13;;;5.45;;
75379;SDS011;65641;44.714;37.756;2022-12-29T01:45:00;8.50;;;5.15;;
75379;SDS011;65641;44.714;37.756;2022-12-29T01:46:07;8.38;;;5.38;;
75379;SDS011;65641;44.714;37.756;2022-12-29T01:47:28;9.23;;;5.75;;
75379;SDS011;65641;44.714;37.756;2022-12-29T01:48:39;8.65;;;5.45;;
75379;SDS011;65641;44.714;37.756;2022-12-29T01:49:46;7.30;;;5.25;;
75379;SDS011;65641;44.714;37.756;2022-12-29T01:50:50;8.40;;;5.05;;
75379;SDS011;65641;44.714;37.756;2022-12-29T01:51:57;9.00;;;5.22;;
75379;SDS011;65641;44.714;37.756;2022-12-29T01:53:09;9.95;;;4.88;;
75379;SDS011;65641;44.714;37.756;2022-12-29T01:54:22;8.05;;;6.30;;
75379;SDS011;65641;44.714;37.756;2022-12-29T01:55:29;7.90;;;4.85;;
75379;SDS011;65641;44.714;37.756;2022-12-29T01:56:39;9.50;;;5.68;;
75379;SDS011;65641;44.714;37.756;2022-12-29T01:57:48;6.50;;;4.18;;
75379;SDS011;65641;44.714;37.756;2022-12-29T01:59:01;7.18;;;5.03;;
75379;SDS011;65641;44.714;37.756;2022-12-29T02:00:09;6.53;;;4.97;;
75379;SDS011;65641;44.714;37.756;2022-12-29T02:01:15;6.40;;;4.50;;
75379;SDS011;65641;44.714;37.756;2022-12-29T02:02:20;8.52;;;4.93;;
75379;SDS011;65641;44.714;37.756;2022-12-29T02:03:24;8.13;;;5.85;;
75379;SDS011;65641;44.714;37.756;2022-12-29T02:04:29;7.60;;;5.22;;
75379;SDS011;65641;44.714;37.756;2022-12-29T02:07:58;9.02;;;4.97;;
75379;SDS011;65641;44.714;37.756;2022-12-29T02:09:02;6.82;;;4.93;;
75379;SDS011;65641;44.714;37.756;2022-12-29T02:10:05;8.52;;;4.63;;
75379;SDS011;65641;44.714;37.756;2022-12-29T02:11:11;7.47;;;5.40;;
75379;SDS011;65641;44.714;37.756;2022-12-29T02:12:19;8.48;;;5.15;;
75379;SDS011;65641;44.714;37.756;2022-12-29T02:13:24;8.10;;;4.80;;
75379;SDS011;65641;44.714;37.756;2022-12-29T02:14:28;10.18;;;5.13;;
75379;SDS011;65641;44.714;37.756;2022-12-29T02:17:26;7.65;;;5.75;;
75379;SDS011;65641;44.714;37.756;2022-12-29T02:19:27;7.95;;;4.93;;
75379;SDS011;65641;44.714;37.756;2022-12-29T02:21:57;7.78;;;4.38;;
75379;SDS011;65641;44.714;37.756;2022-12-29T02:24:45;8.15;;;5.03;;
75379;SDS011;65641;44.714;37.756;2022-12-29T02:26:16;7.35;;;4.82;;
75379;SDS011;65641;44.714;37.756;2022-12-29T02:28:03;8.90;;;5.00;;
75379;SDS011;65641;44.714;37.756;2022-12-29T02:30:51;8.40;;;4.53;;
75379;SDS011;65641;44.714;37.756;2022-12-29T02:36:39;10.60;;;5.35;;
75379;SDS011;65641;44.714;37.756;2022-12-29T02:41:11;8.63;;;4.80;;
75379;SDS011;65641;44.714;37.756;2022-12-29T02:44:04;7.38;;;4.35;;
75379;SDS011;65641;44.714;37.756;2022-12-29T02:45:15;7.97;;;5.18;;
75379;SDS011;65641;44.714;37.756;2022-12-29T02:46:58;9.38;;;5.03;;
75379;SDS011;65641;44.714;37.756;2022-12-29T02:51:18;7.22;;;4.45;;
75379;SDS011;65641;44.714;37.756;2022-12-29T02:52:27;7.75;;;4.40;;
75379;SDS011;65641;44.714;37.756;2022-12-29T02:53:38;7.97;;;4.95;;
75379;SDS011;65641;44.714;37.756;2022-12-29T02:55:00;8.43;;;4.78;;
75379;SDS011;65641;44.714;37.756;2022-12-29T02:56:04;7.30;;;4.85;;
75379;SDS011;65641;44.714;37.756;2022-12-29T02:57:11;8.43;;;5.05;;
75379;SDS011;65641;44.714;37.756;2022-12-29T02:58:20;6.57;;;4.88;;
75379;SDS011;65641;44.714;37.756;2022-12-29T02:59:24;6.30;;;4.38;;
75379;SDS011;65641;44.714;37.756;2022-12-29T03:00:28;7.30;;;4.97;;
75379;SDS011;65641;44.714;37.756;2022-12-29T03:07:30;7.15;;;4.72;;
75379;SDS011;65641;44.714;37.756;2022-12-29T03:11:40;7.20;;;4.90;;
75379;SDS011;65641;44.714;37.756;2022-12-29T03:13:21;9.30;;;4.72;;
75379;SDS011;65641;44.714;37.756;2022-12-29T03:15:07;6.65;;;4.32;;
75379;SDS011;65641;44.714;37.756;2022-12-29T03:16:44;6.28;;;4.18;;
75379;SDS011;65641;44.714;37.756;2022-12-29T03:18:05;7.13;;;4.10;;
75379;SDS011;65641;44.714;37.756;2022-12-29T03:20:31;8.75;;;4.43;;
75379;SDS011;65641;44.714;37.756;2022-12-29T03:23:10;5.63;;;3.70;;
75379;SDS011;65641;44.714;37.756;2022-12-29T03:24:15;6.45;;;3.90;;
75379;SDS011;65641;44.714;37.756;2022-12-29T03:25:29;7.95;;;4.60;;
75379;SDS011;65641;44.714;37.756;2022-12-29T03:26:37;4.80;;;4.25;;
75379;SDS011;65641;44.714;37.756;2022-12-29T03:27:53;7.43;;;4.53;;
75379;SDS011;65641;44.714;37.756;2022-12-29T03:29:01;7.65;;;4.85;;
75379;SDS011;65641;44.714;37.756;2022-12-29T03:30:04;5.85;;;4.45;;
75379;SDS011;65641;44.714;37.756;2022-12-29T03:31:09;9.45;;;4.38;;
75379;SDS011;65641;44.714;37.756;2022-12-29T03:32:14;5.80;;;4.13;;
75379;SDS011;65641;44.714;37.756;2022-12-29T03:33:23;4.95;;;3.60;;
75379;SDS011;65641;44.714;37.756;2022-12-29T03:34:33;6.43;;;4.63;;
75379;SDS011;65641;44.714;37.756;2022-12-29T03:35:37;6.45;;;4.40;;
75379;SDS011;65641;44.714;37.756;2022-12-29T03:36:50;6.18;;;3.90;;
75379;SDS011;65641;44.714;37.756;2022-12-29T03:41:09;6.20;;;3.88;;
75379;SDS011;65641;44.714;37.756;2022-12-29T03:42:17;8.60;;;4.45;;
75379;SDS011;65641;44.714;37.756;2022-12-29T03:43:26;7.18;;;4.18;;
75379;SDS011;65641;44.714;37.756;2022-12-29T03:44:35;6.72;;;4.22;;
75379;SDS011;65641;44.714;37.756;2022-12-29T03:45:39;6.45;;;4.25;;
75379;SDS011;65641;44.714;37.756;2022-12-29T03:46:42;6.97;;;4.47;;
75379;SDS011;65641;44.714;37.756;2022-12-29T03:47:46;7.45;;;4.75;;
75379;SDS011;65641;44.714;37.756;2022-12-29T03:48:51;6.78;;;4.45;;
75379;SDS011;65641;44.714;37.756;2022-12-29T03:49:54;6.15;;;4.25;;
75379;SDS011;65641;44.714;37.756;2022-12-29T03:50:57;6.30;;;4.82;;
75379;SDS011;65641;44.714;37.756;2022-12-29T03:52:01;6.88;;;4.55;;
75379;SDS011;65641;44.714;37.756;2022-12-29T03:53:05;5.03;;;3.72;;
75379;SDS011;65641;44.714;37.756;2022-12-29T03:54:10;8.25;;;4.60;;
75379;SDS011;65641;44.714;37.756;2022-12-29T03:55:13;7.20;;;4.68;;
75379;SDS011;65641;44.714;37.756;2022-12-29T03:56:16;8.13;;;4.20;;
75379;SDS011;65641;44.714;37.756;2022-12-29T03:57:20;6.63;;;3.92;;
75379;SDS011;65641;44.714;37.756;2022-12-29T03:59:45;6.78;;;4.13;;
75379;SDS011;65641;44.714;37.756;2022-12-29T04:00:48;4.82;;;3.53;;
75379;SDS011;65641;44.714;37.756;2022-12-29T04:01:52;6.05;;;3.95;;
75379;SDS011;65641;44.714;37.756;2022-12-29T04:02:55;6.95;;;4.50;;
75379;SDS011;65641;44.714;37.756;2022-12-29T04:03:58;8.48;;;4.30;;
75379;SDS011;65641;44.714;37.756;2022-12-29T04:05:01;5.82;;;4.05;;
75379;SDS011;65641;44.714;37.756;2022-12-29T04:06:04;6.88;;;4.45;;
75379;SDS011;65641;44.714;37.756;2022-12-29T04:07:28;6.10;;;4.18;;
75379;SDS011;65641;44.714;37.756;2022-12-29T04:08:31;6.68;;;4.20;;
75379;SDS011;65641;44.714;37.756;2022-12-29T04:09:35;5.95;;;4.40;;
75379;SDS011;65641;44.714;37.756;2022-12-29T04:10:38;5.30;;;3.97;;
75379;SDS011;65641;44.714;37.756;2022-12-29T04:11:42;5.45;;;3.10;;
75379;SDS011;65641;44.714;37.756;2022-12-29T04:12:45;6.35;;;4.63;;
75379;SDS011;65641;44.714;37.756;2022-12-29T04:13:48;8.45;;;4.00;;
75379;SDS011;65641;44.714;37.756;2022-12-29T04:14:55;6.05;;;3.97;;
75379;SDS011;65641;44.714;37.756;2022-12-29T04:15:59;7.15;;;4.47;;
75379;SDS011;65641;44.714;37.756;2022-12-29T04:17:04;5.35;;;3.92;;
75379;SDS011;65641;44.714;37.756;2022-12-29T04:18:12;6.53;;;4.10;;
75379;SDS011;65641;44.714;37.756;2022-12-29T04:19:15;6.60;;;4.00;;
75379;SDS011;65641;44.714;37.756;2022-12-29T04:20:20;5.00;;;3.72;;
75379;SDS011;65641;44.714;37.756;2022-12-29T04:21:43;5.63;;;4.18;;
75379;SDS011;65641;44.714;37.756;2022-12-29T04:22:46;8.20;;;4.45;;
75379;SDS011;65641;44.714;37.756;2022-12-29T04:23:49;6.22;;;4.07;;
75379;SDS011;65641;44.714;37.756;2022-12-29T04:24:52;4.65;;;3.70;;
75379;SDS011;65641;44.714;37.756;2022-12-29T04:25:55;6.90;;;4.20;;
75379;SDS011;65641;44.714;37.756;2022-12-29T04:26:59;5.18;;;3.85;;
75379;SDS011;65641;44.714;37.756;2022-12-29T04:28:21;6.18;;;3.88;;
75379;SDS011;65641;44.714;37.756;2022-12-29T04:29:44;6.40;;;3.95;;
75379;SDS011;65641;44.714;37.756;2022-12-29T04:31:15;8.52;;;4.57;;
75379;SDS011;65641;44.714;37.756;2022-12-29T04:32:21;5.43;;;3.92;;
75379;SDS011;65641;44.714;37.756;2022-12-29T04:33:25;7.43;;;4.03;;
75379;SDS011;65641;44.714;37.756;2022-12-29T04:34:28;5.85;;;3.85;;
75379;SDS011;65641;44.714;37.756;2022-12-29T04:35:31;5.78;;;3.75;;
75379;SDS011;65641;44.714;37.756;2022-12-29T04:36:35;5.70;;;3.85;;
75379;SDS011;65641;44.714;37.756;2022-12-29T04:37:38;5.53;;;3.85;;
75379;SDS011;65641;44.714;37.756;2022-12-29T04:38:41;4.97;;;3.25;;
75379;SDS011;65641;44.714;37.756;2022-12-29T04:39:44;5.70;;;4.25;;
75379;SDS011;65641;44.714;37.756;2022-12-29T04:40:50;5.38;;;3.60;;
75379;SDS011;65641;44.714;37.756;2022-12-29T04:41:56;7.00;;;3.53;;
75379;SDS011;65641;44.714;37.756;2022-12-29T04:43:00;5.50;;;3.83;;
75379;SDS011;65641;44.714;37.756;2022-12-29T04:44:03;6.45;;;4.00;;
75379;SDS011;65641;44.714;37.756;2022-12-29T04:45:25;5.90;;;3.63;;
75379;SDS011;65641;44.714;37.756;2022-12-29T04:46:43;9.30;;;3.85;;
75379;SDS011;65641;44.714;37.756;2022-12-29T04:47:56;3.90;;;2.90;;
75379;SDS011;65641;44.714;37.756;2022-12-29T04:49:24;5.97;;;3.47;;
75379;SDS011;65641;44.714;37.756;2022-12-29T04:50:36;5.15;;;3.75;;
75379;SDS011;65641;44.714;37.756;2022-12-29T04:52:52;5.30;;;3.70;;
75379;SDS011;65641;44.714;37.756;2022-12-29T04:53:55;5.32;;;4.22;;
75379;SDS011;65641;44.714;37.756;2022-12-29T04:54:59;5.28;;;3.60;;
75379;SDS011;65641;44.714;37.756;2022-12-29T04:56:04;6.65;;;3.28;;
75379;SDS011;65641;44.714;37.756;2022-12-29T04:57:07;4.65;;;3.22;;
75379;SDS011;65641;44.714;37.756;2022-12-29T04:58:12;6.53;;;3.60;;
75379;SDS011;65641;44.714;37.756;2022-12-29T04:59:23;6.18;;;3.40;;
75379;SDS011;65641;44.714;37.756;2022-12-29T05:00:30;6.40;;;3.85;;
75379;SDS011;65641;44.714;37.756;2022-12-29T05:01:33;6.32;;;4.05;;
75379;SDS011;65641;44.714;37.756;2022-12-29T05:02:37;5.30;;;3.83;;
75379;SDS011;65641;44.714;37.756;2022-12-29T05:03:40;5.78;;;3.70;;
75379;SDS011;65641;44.714;37.756;2022-12-29T05:04:43;5.43;;;3.60;;
75379;SDS011;65641;44.714;37.756;2022-12-29T05:05:46;6.13;;;3.38;;
75379;SDS011;65641;44.714;37.756;2022-12-29T05:06:49;6.30;;;3.95;;
75379;SDS011;65641;44.714;37.756;2022-12-29T05:07:52;6.80;;;4.90;;
75379;SDS011;65641;44.714;37.756;2022-12-29T05:08:55;5.38;;;3.88;;
75379;SDS011;65641;44.714;37.756;2022-12-29T05:09:59;6.43;;;3.83;;
75379;SDS011;65641;44.714;37.756;2022-12-29T05:11:03;6.90;;;3.67;;
75379;SDS011;65641;44.714;37.756;2022-12-29T05:12:06;5.05;;;3.80;;
75379;SDS011;65641;44.714;37.756;2022-12-29T05:13:12;5.80;;;4.10;;
75379;SDS011;65641;44.714;37.756;2022-12-29T05:14:16;6.07;;;2.67;;
75379;SDS011;65641;44.714;37.756;2022-12-29T05:15:20;6.10;;;3.85;;
75379;SDS011;65641;44.714;37.756;2022-12-29T05:16:24;5.22;;;4.03;;
75379;SDS011;65641;44.714;37.756;2022-12-29T05:17:27;7.95;;;4.13;;
75379;SDS011;65641;44.714;37.756;2022-12-29T05:18:31;5.82;;;4.28;;
75379;SDS011;65641;44.714;37.756;2022-12-29T05:19:34;6.30;;;4.38;;
75379;SDS011;65641;44.714;37.756;2022-12-29T05:20:37;7.32;;;4.15;;
75379;SDS011;65641;44.714;37.756;2022-12-29T05:21:40;4.93;;;3.70;;
75379;SDS011;65641;44.714;37.756;2022-12-29T05:22:43;5.82;;;4.22;;
75379;SDS011;65641;44.714;37.756;2022-12-29T05:23:46;8.57;;;4.07;;
75379;SDS011;65641;44.714;37.756;2022-12-29T05:24:50;5.68;;;3.10;;
75379;SDS011;65641;44.714;37.756;2022-12-29T05:26:03;5.38;;;3.67;;
75379;SDS011;65641;44.714;37.756;2022-12-29T05:27:28;5.95;;;3.75;;
75379;SDS011;65641;44.714;37.756;2022-12-29T05:29:02;5.43;;;4.10;;
75379;SDS011;65641;44.714;37.756;2022-12-29T05:30:07;5.88;;;3.28;;
75379;SDS011;65641;44.714;37.756;2022-12-29T05:31:11;6.90;;;3.90;;
75379;SDS011;65641;44.714;37.756;2022-12-29T05:32:14;5.70;;;3.88;;
75379;SDS011;65641;44.714;37.756;2022-12-29T05:33:18;5.32;;;3.53;;
75379;SDS011;65641;44.714;37.756;2022-12-29T05:34:23;6.43;;;4.30;;
75379;SDS011;65641;44.714;37.756;2022-12-29T05:35:26;5.97;;;4.22;;
75379;SDS011;65641;44.714;37.756;2022-12-29T05:36:29;4.68;;;3.53;;
75379;SDS011;65641;44.714;37.756;2022-12-29T05:37:39;6.00;;;3.95;;
75379;SDS011;65641;44.714;37.756;2022-12-29T05:38:45;6.43;;;4.25;;
75379;SDS011;65641;44.714;37.756;2022-12-29T05:39:48;8.52;;;4.07;;
75379;SDS011;65641;44.714;37.756;2022-12-29T05:40:54;6.32;;;3.67;;
75379;SDS011;65641;44.714;37.756;2022-12-29T05:42:36;6.55;;;3.88;;
75379;SDS011;65641;44.714;37.756;2022-12-29T05:44:00;5.45;;;3.58;;
75379;SDS011;65641;44.714;37.756;2022-12-29T05:45:35;5.32;;;3.90;;
75379;SDS011;65641;44.714;37.756;2022-12-29T05:46:57;6.30;;;3.90;;
75379;SDS011;65641;44.714;37.756;2022-12-29T05:48:25;5.88;;;3.92;;
75379;SDS011;65641;44.714;37.756;2022-12-29T05:49:44;5.28;;;3.85;;
75379;SDS011;65641;44.714;37.756;2022-12-29T05:51:06;5.45;;;3.58;;
75379;SDS011;65641;44.714;37.756;2022-12-29T05:52:21;5.82;;;4.22;;
75379;SDS011;65641;44.714;37.756;2022-12-29T05:53:23;5.53;;;3.83;;
75379;SDS011;65641;44.714;37.756;2022-12-29T05:54:26;5.93;;;4.25;;
75379;SDS011;65641;44.714;37.756;2022-12-29T05:55:30;4.57;;;3.50;;
75379;SDS011;65641;44.714;37.756;2022-12-29T05:56:34;5.75;;;4.20;;
75379;SDS011;65641;44.714;37.756;2022-12-29T05:57:37;5.03;;;3.53;;
75379;SDS011;65641;44.714;37.756;2022-12-29T05:58:47;7.28;;;4.45;;
75379;SDS011;65641;44.714;37.756;2022-12-29T05:59:50;6.00;;;3.90;;
75379;SDS011;65641;44.714;37.756;2022-12-29T06:00:52;6.63;;;3.95;;
75379;SDS011;65641;44.714;37.756;2022-12-29T06:01:55;5.57;;;3.72;;
75379;SDS011;65641;44.714;37.756;2022-12-29T06:02:59;5.47;;;4.15;;
75379;SDS011;65641;44.714;37.756;2022-12-29T06:04:02;5.80;;;3.97;;
75379;SDS011;65641;44.714;37.756;2022-12-29T06:05:06;6.10;;;4.28;;
75379;SDS011;65641;44.714;37.756;2022-12-29T06:06:13;6.68;;;4.28;;
75379;SDS011;65641;44.714;37.756;2022-12-29T06:07:17;6.65;;;3.90;;
75379;SDS011;65641;44.714;37.756;2022-12-29T06:08:21;8.95;;;5.15;;
75379;SDS011;65641;44.714;37.756;2022-12-29T06:09:24;6.68;;;3.97;;
75379;SDS011;65641;44.714;37.756;2022-12-29T06:10:28;5.85;;;4.00;;
75379;SDS011;65641;44.714;37.756;2022-12-29T06:11:39;6.82;;;3.80;;
75379;SDS011;65641;44.714;37.756;2022-12-29T06:12:52;7.65;;;4.43;;
75379;SDS011;65641;44.714;37.756;2022-12-29T06:13:55;6.85;;;4.13;;
75379;SDS011;65641;44.714;37.756;2022-12-29T06:14:59;5.72;;;4.35;;
75379;SDS011;65641;44.714;37.756;2022-12-29T06:16:02;7.68;;;4.50;;
75379;SDS011;65641;44.714;37.756;2022-12-29T06:17:05;4.88;;;3.45;;
75379;SDS011;65641;44.714;37.756;2022-12-29T06:18:08;6.32;;;4.13;;
75379;SDS011;65641;44.714;37.756;2022-12-29T06:19:21;5.25;;;4.10;;
75379;SDS011;65641;44.714;37.756;2022-12-29T06:20:24;4.60;;;3.78;;
75379;SDS011;65641;44.714;37.756;2022-12-29T06:21:26;7.57;;;4.18;;
75379;SDS011;65641;44.714;37.756;2022-12-29T06:22:29;5.90;;;3.67;;
75379;SDS011;65641;44.714;37.756;2022-12-29T06:23:33;4.90;;;3.53;;
75379;SDS011;65641;44.714;37.756;2022-12-29T06:24:36;3.60;;;2.35;;
75379;SDS011;65641;44.714;37.756;2022-12-29T06:25:39;4.40;;;3.97;;
75379;SDS011;65641;44.714;37.756;2022-12-29T06:26:42;5.70;;;3.40;;
75379;SDS011;65641;44.714;37.756;2022-12-29T06:27:45;4.95;;;3.55;;
75379;SDS011;65641;44.714;37.756;2022-12-29T06:28:51;5.78;;;4.47;;
75379;SDS011;65641;44.714;37.756;2022-12-29T06:29:54;7.43;;;4.50;;
75379;SDS011;65641;44.714;37.756;2022-12-29T06:30:57;5.18;;;4.18;;
75379;SDS011;65641;44.714;37.756;2022-12-29T06:32:01;5.32;;;3.33;;
75379;SDS011;65641;44.714;37.756;2022-12-29T06:33:06;4.60;;;4.05;;
75379;SDS011;65641;44.714;37.756;2022-12-29T06:34:11;6.20;;;4.20;;
75379;SDS011;65641;44.714;37.756;2022-12-29T06:35:15;5.38;;;4.03;;
75379;SDS011;65641;44.714;37.756;2022-12-29T06:36:24;6.28;;;3.83;;
75379;SDS011;65641;44.714;37.756;2022-12-29T06:37:27;6.63;;;3.97;;
75379;SDS011;65641;44.714;37.756;2022-12-29T06:38:30;5.03;;;3.70;;
75379;SDS011;65641;44.714;37.756;2022-12-29T06:39:33;6.35;;;4.00;;
75379;SDS011;65641;44.714;37.756;2022-12-29T06:40:41;4.85;;;4.07;;
75379;SDS011;65641;44.714;37.756;2022-12-29T06:41:56;6.35;;;4.13;;
75379;SDS011;65641;44.714;37.756;2022-12-29T06:43:37;5.60;;;3.65;;
75379;SDS011;65641;44.714;37.756;2022-12-29T06:44:51;5.25;;;4.03;;
75379;SDS011;65641;44.714;37.756;2022-12-29T06:45:59;5.18;;;3.63;;
75379;SDS011;65641;44.714;37.756;2022-12-29T06:47:02;6.07;;;4.00;;
75379;SDS011;65641;44.714;37.756;2022-12-29T06:48:05;7.40;;;4.45;;
75379;SDS011;65641;44.714;37.756;2022-12-29T06:49:09;5.85;;;4.72;;
75379;SDS011;65641;44.714;37.756;2022-12-29T06:50:12;5.78;;;4.22;;
75379;SDS011;65641;44.714;37.756;2022-12-29T06:51:15;5.20;;;4.68;;
75379;SDS011;65641;44.714;37.756;2022-12-29T06:52:18;5.63;;;4.03;;
75379;SDS011;65641;44.714;37.756;2022-12-29T06:53:21;5.47;;;4.20;;
75379;SDS011;65641;44.714;37.756;2022-12-29T06:54:24;7.13;;;4.72;;
75379;SDS011;65641;44.714;37.756;2022-12-29T06:55:32;5.38;;;3.90;;
75379;SDS011;65641;44.714;37.756;2022-12-29T06:56:35;6.25;;;4.45;;
75379;SDS011;65641;44.714;37.756;2022-12-29T06:57:38;6.57;;;4.30;;
75379;SDS011;65641;44.714;37.756;2022-12-29T06:58:41;6.45;;;4.93;;
75379;SDS011;65641;44.714;37.756;2022-12-29T06:59:44;5.40;;;3.67;;
75379;SDS011;65641;44.714;37.756;2022-12-29T07:00:47;7.05;;;4.35;;
75379;SDS011;65641;44.714;37.756;2022-12-29T07:01:50;6.65;;;4.53;;
75379;SDS011;65641;44.714;37.756;2022-12-29T07:02:54;5.50;;;4.43;;
75379;SDS011;65641;44.714;37.756;2022-12-29T07:03:58;5.93;;;4.68;;
75379;SDS011;65641;44.714;37.756;2022-12-29T07:05:05;6.75;;;4.18;;
75379;SDS011;65641;44.714;37.756;2022-12-29T07:06:09;6.95;;;4.15;;
75379;SDS011;65641;44.714;37.756;2022-12-29T07:07:12;6.20;;;4.72;;
75379;SDS011;65641;44.714;37.756;2022-12-29T07:08:15;6.43;;;4.40;;
75379;SDS011;65641;44.714;37.756;2022-12-29T07:09:18;5.30;;;4.07;;
75379;SDS011;65641;44.714;37.756;2022-12-29T07:10:21;6.82;;;4.43;;
75379;SDS011;65641;44.714;37.756;2022-12-29T07:11:24;6.35;;;4.55;;
75379;SDS011;65641;44.714;37.756;2022-12-29T07:12:27;6.68;;;5.25;;
75379;SDS011;65641;44.714;37.756;2022-12-29T07:13:30;7.03;;;4.90;;
75379;SDS011;65641;44.714;37.756;2022-12-29T07:14:35;6.78;;;4.68;;
75379;SDS011;65641;44.714;37.756;2022-12-29T07:15:44;6.65;;;5.00;;
75379;SDS011;65641;44.714;37.756;2022-12-29T07:16:47;7.15;;;4.85;;
75379;SDS011;65641;44.714;37.756;2022-12-29T07:17:50;7.68;;;4.88;;
75379;SDS011;65641;44.714;37.756;2022-12-29T07:18:53;6.35;;;4.72;;
75379;SDS011;65641;44.714;37.756;2022-12-29T07:19:56;6.55;;;4.43;;
75379;SDS011;65641;44.714;37.756;2022-12-29T07:20:59;6.57;;;5.15;;
75379;SDS011;65641;44.714;37.756;2022-12-29T07:22:02;8.63;;;4.55;;
75379;SDS011;65641;44.714;37.756;2022-12-29T07:23:05;6.25;;;4.78;;
75379;SDS011;65641;44.714;37.756;2022-12-29T07:24:08;8.82;;;4.85;;